createdAt,value
2023-03-17T00:00:01.422Z,0.00
2023-03-17T00:01:01.391Z,0.00
2023-03-17T00:02:01.390Z,0.00
2023-03-17T00:03:01.368Z,0.00
2023-03-17T00:04:01.538Z,0.00
2023-03-17T00:05:01.374Z,0.00
2023-03-17T00:06:01.320Z,0.00
2023-03-17T00:07:01.317Z,0.00
2023-03-17T00:08:01.306Z,0.00
2023-03-17T00:09:01.284Z,0.00
2023-03-17T00:10:01.287Z,0.00
2023-03-17T00:11:01.271Z,0.00
2023-03-17T00:12:01.255Z,0.00
2023-03-17T00:13:01.254Z,0.00
2023-03-17T00:14:01.226Z,0.00
2023-03-17T00:15:01.263Z,0.00
2023-03-17T00:16:01.255Z,0.00
2023-03-17T00:17:01.211Z,0.00
2023-03-17T00:18:01.191Z,0.00
2023-03-17T00:19:01.188Z,0.00
2023-03-17T00:20:01.212Z,0.00
2023-03-17T00:21:01.167Z,0.00
2023-03-17T00:22:01.300Z,0.00
2023-03-17T00:23:01.141Z,0.00
2023-03-17T00:24:01.142Z,0.00
2023-03-17T00:25:01.115Z,0.00
2023-03-17T00:26:01.104Z,0.00
2023-03-17T00:27:01.158Z,0.00
2023-03-17T00:28:01.089Z,0.00
2023-03-17T00:29:01.076Z,0.00
2023-03-17T00:30:01.078Z,0.00
2023-03-17T00:31:01.212Z,0.00
2023-03-17T00:32:01.066Z,0.00
2023-03-17T00:33:01.053Z,0.00
2023-03-17T00:34:01.028Z,0.00
2023-03-17T00:35:01.038Z,0.00
2023-03-17T00:36:01.102Z,0.00
2023-03-17T00:37:00.993Z,0.00
2023-03-17T00:38:00.981Z,0.00
2023-03-17T00:39:01.018Z,0.00
2023-03-17T00:40:00.951Z,0.00
2023-03-17T00:41:00.955Z,0.00
2023-03-17T00:42:00.929Z,0.00
2023-03-17T00:43:00.934Z,0.00
2023-03-17T00:44:00.916Z,0.00
2023-03-17T00:45:00.918Z,0.00
2023-03-17T00:46:00.884Z,0.00
2023-03-17T00:47:00.989Z,0.00
2023-03-17T00:48:00.876Z,0.00
2023-03-17T00:49:00.853Z,0.00
2023-03-17T00:50:00.933Z,0.00
2023-03-17T00:51:00.866Z,0.00
2023-03-17T00:52:00.817Z,0.00
2023-03-17T00:53:00.817Z,0.00
2023-03-17T00:54:00.791Z,0.00
2023-03-17T00:55:00.792Z,0.00
2023-03-17T00:56:00.771Z,0.00
2023-03-17T00:57:00.776Z,0.00
2023-03-17T00:58:00.863Z,0.00
2023-03-17T00:59:00.774Z,0.00
2023-03-17T01:00:00.741Z,0.00
2023-03-17T01:01:00.801Z,0.00
2023-03-17T01:02:00.780Z,0.00
2023-03-17T01:03:00.712Z,0.00
2023-03-17T01:04:00.700Z,0.00
2023-03-17T01:05:06.298Z,0.00
2023-03-17T01:06:00.701Z,0.00
2023-03-17T01:07:00.675Z,0.00
2023-03-17T01:08:00.665Z,0.00
2023-03-17T01:09:00.656Z,0.00
2023-03-17T01:10:00.645Z,0.00
2023-03-17T01:11:00.635Z,0.00
2023-03-17T01:12:00.624Z,0.00
2023-03-17T01:13:00.611Z,0.00
2023-03-17T01:14:00.579Z,0.00
2023-03-17T01:15:00.576Z,0.00
2023-03-17T01:16:00.641Z,0.00
2023-03-17T01:17:00.575Z,0.00
2023-03-17T01:18:00.552Z,0.00
2023-03-17T01:19:00.610Z,0.00
2023-03-17T01:20:00.529Z,0.00
2023-03-17T01:21:00.514Z,0.00
2023-03-17T01:22:00.508Z,0.00
2023-03-17T01:23:00.511Z,0.00
2023-03-17T01:24:00.555Z,0.00
2023-03-17T01:25:00.504Z,0.00
2023-03-17T01:26:00.483Z,0.00
2023-03-17T01:27:00.459Z,0.00
2023-03-17T01:28:00.462Z,0.00
2023-03-17T01:29:00.425Z,0.00
2023-03-17T01:30:00.411Z,0.00
2023-03-17T01:31:00.428Z,0.00
2023-03-17T01:32:00.485Z,0.00
2023-03-17T01:33:00.453Z,0.00
2023-03-17T01:34:00.378Z,0.00
2023-03-17T01:35:00.382Z,0.00
2023-03-17T01:36:00.416Z,0.00
2023-03-17T01:37:00.353Z,0.00
2023-03-17T01:38:00.349Z,0.00
2023-03-17T01:39:00.341Z,0.00
2023-03-17T01:40:00.303Z,0.00
2023-03-17T01:41:00.299Z,0.00
2023-03-17T01:42:00.288Z,0.00
2023-03-17T01:43:00.296Z,0.00
2023-03-17T01:44:00.278Z,0.00
2023-03-17T01:45:00.266Z,0.00
2023-03-17T01:46:00.265Z,0.00
2023-03-17T01:47:00.236Z,0.00
2023-03-17T01:48:00.235Z,0.00
2023-03-17T01:49:00.215Z,0.00
2023-03-17T01:50:00.217Z,0.00
2023-03-17T01:51:00.199Z,0.00
2023-03-17T01:52:00.189Z,0.00
2023-03-17T01:53:00.197Z,0.00
2023-03-17T01:54:00.162Z,0.00
2023-03-17T01:55:00.174Z,0.00
2023-03-17T01:56:00.136Z,0.00
2023-03-17T01:57:00.152Z,0.00
2023-03-17T01:58:00.136Z,0.00
2023-03-17T01:59:00.109Z,0.00
2023-03-17T02:00:00.135Z,0.00
2023-03-17T02:01:00.162Z,0.00
2023-03-17T02:02:00.086Z,0.00
2023-03-17T02:03:00.105Z,0.00
2023-03-17T02:04:00.103Z,0.00
2023-03-17T02:05:00.087Z,0.00
2023-03-17T02:06:00.035Z,0.00
2023-03-17T02:07:00.043Z,0.00
2023-03-17T02:08:00.029Z,0.00
2023-03-17T02:09:00.009Z,0.00
2023-03-17T02:09:59.991Z,0.00
2023-03-17T02:11:00.011Z,0.00
2023-03-17T02:11:59.975Z,0.00
2023-03-17T02:12:59.998Z,0.00
2023-03-17T02:13:59.963Z,0.00
2023-03-17T02:14:59.953Z,0.00
2023-03-17T02:15:59.934Z,0.00
2023-03-17T02:16:59.977Z,0.00
2023-03-17T02:17:59.914Z,0.00
2023-03-17T02:18:59.898Z,0.00
2023-03-17T02:19:59.889Z,0.00
2023-03-17T02:20:59.892Z,0.00
2023-03-17T02:21:59.880Z,0.00
2023-03-17T02:22:59.872Z,0.00
2023-03-17T02:23:59.857Z,0.00
2023-03-17T02:24:59.849Z,0.00
2023-03-17T02:25:59.824Z,0.00
2023-03-17T02:26:59.856Z,0.00
2023-03-17T02:27:59.825Z,0.00
2023-03-17T02:28:59.813Z,0.00
2023-03-17T02:29:59.830Z,0.00
2023-03-17T02:30:59.899Z,0.00
2023-03-17T02:31:59.764Z,0.00
2023-03-17T02:32:59.831Z,0.00
2023-03-17T02:33:59.734Z,0.00
2023-03-17T02:34:59.735Z,0.00
2023-03-17T02:35:59.771Z,0.00
2023-03-17T02:36:59.716Z,0.00
2023-03-17T02:37:59.713Z,0.00
2023-03-17T02:38:59.698Z,0.00
2023-03-17T02:39:59.690Z,0.00
2023-03-17T02:40:59.669Z,0.00
2023-03-17T02:41:59.669Z,0.00
2023-03-17T02:45:22.423Z,0.00
2023-03-17T02:46:23.438Z,0.00
2023-03-17T02:47:23.394Z,0.00
2023-03-17T02:48:23.397Z,0.00
2023-03-17T02:49:23.360Z,0.00
2023-03-17T02:50:23.369Z,0.00
2023-03-17T02:51:23.353Z,0.00
2023-03-17T02:52:23.329Z,0.00
2023-03-17T02:53:23.360Z,0.00
2023-03-17T02:54:23.324Z,0.00
2023-03-17T02:55:23.334Z,0.00
2023-03-17T02:56:23.325Z,0.00
2023-03-17T02:57:23.292Z,0.00
2023-03-17T02:58:23.290Z,0.00
2023-03-17T02:59:23.255Z,0.00
2023-03-17T03:00:23.281Z,0.00
2023-03-17T03:01:23.290Z,0.00
2023-03-17T03:02:23.271Z,0.00
2023-03-17T03:03:23.252Z,0.00
2023-03-17T03:04:23.208Z,0.00
2023-03-17T03:05:23.193Z,0.00
2023-03-17T03:06:23.180Z,0.00
2023-03-17T03:07:23.166Z,0.00
2023-03-17T03:08:23.176Z,0.00
2023-03-17T03:09:23.165Z,0.00
2023-03-17T03:10:23.140Z,0.00
2023-03-17T03:11:23.139Z,0.00
2023-03-17T03:12:23.127Z,0.00
2023-03-17T03:13:23.114Z,0.00
2023-03-17T03:14:23.113Z,0.00
2023-03-17T03:15:23.096Z,0.00
2023-03-17T03:16:23.106Z,0.00
2023-03-17T03:17:23.077Z,0.00
2023-03-17T03:18:23.094Z,0.00
2023-03-17T03:19:23.049Z,0.00
2023-03-17T03:20:23.046Z,0.00
2023-03-17T03:21:23.026Z,0.00
2023-03-17T03:22:23.031Z,0.00
2023-03-17T03:23:23.012Z,0.00
2023-03-17T03:24:23.027Z,0.00
2023-03-17T03:25:22.995Z,0.00
2023-03-17T03:26:22.981Z,0.00
2023-03-17T03:27:22.966Z,0.00
2023-03-17T03:28:22.972Z,0.00
2023-03-17T03:29:22.936Z,0.00
2023-03-17T03:30:22.939Z,0.00
2023-03-17T03:31:22.953Z,0.00
2023-03-17T03:32:22.904Z,0.00
2023-03-17T03:33:22.926Z,0.00
2023-03-17T03:34:22.893Z,0.00
2023-03-17T03:35:22.920Z,0.00
2023-03-17T03:36:22.870Z,0.00
2023-03-17T03:37:22.855Z,0.00
2023-03-17T03:38:22.872Z,0.00
2023-03-17T03:39:22.826Z,0.00
2023-03-17T03:40:22.827Z,0.00
2023-03-17T03:41:22.821Z,0.00
2023-03-17T03:42:22.810Z,0.00
2023-03-17T03:43:24.032Z,0.00
2023-03-17T03:44:22.785Z,0.00
2023-03-17T03:45:22.787Z,0.00
2023-03-17T03:46:22.783Z,0.00
2023-03-17T03:47:22.757Z,0.00
2023-03-17T03:48:22.746Z,0.00
2023-03-17T03:49:22.722Z,0.00
2023-03-17T03:50:22.707Z,0.00
2023-03-17T03:51:22.701Z,0.00
2023-03-17T03:52:22.703Z,0.00
2023-03-17T03:53:22.684Z,0.00
2023-03-17T03:54:22.660Z,0.00
2023-03-17T03:55:22.677Z,0.00
2023-03-17T03:56:22.653Z,0.00
2023-03-17T03:57:22.638Z,0.00
2023-03-17T03:58:22.629Z,0.00
2023-03-17T03:59:22.608Z,0.00
2023-03-17T04:00:22.609Z,0.00
2023-03-17T04:01:22.592Z,0.00
2023-03-17T04:02:22.644Z,0.00
2023-03-17T04:03:22.573Z,0.00
2023-03-17T04:04:22.602Z,0.00
2023-03-17T04:05:22.540Z,0.00
2023-03-17T04:06:22.547Z,0.00
2023-03-17T04:07:22.529Z,0.00
2023-03-17T04:08:22.526Z,0.00
2023-03-17T04:09:22.507Z,0.00
2023-03-17T04:10:22.500Z,0.00
2023-03-17T04:11:22.496Z,0.00
2023-03-17T04:12:22.492Z,0.00
2023-03-17T04:13:22.485Z,0.00
2023-03-17T04:14:22.461Z,0.00
2023-03-17T04:15:22.435Z,0.00
2023-03-17T04:16:22.526Z,0.00
2023-03-17T04:17:22.408Z,0.00
2023-03-17T04:18:22.441Z,0.00
2023-03-17T04:19:22.474Z,0.00
2023-03-17T04:20:22.427Z,0.00
2023-03-17T04:21:22.368Z,0.00
2023-03-17T04:22:22.379Z,0.00
2023-03-17T04:23:22.374Z,0.00
2023-03-17T04:24:22.372Z,0.00
2023-03-17T04:25:22.327Z,0.00
2023-03-17T04:26:22.334Z,0.00
2023-03-17T04:27:22.307Z,0.00
2023-03-17T04:28:22.337Z,0.00
2023-03-17T04:29:22.288Z,0.00
2023-03-17T04:30:22.277Z,0.00
2023-03-17T04:31:22.302Z,0.00
2023-03-17T04:32:22.253Z,0.00
2023-03-17T04:33:22.260Z,0.00
2023-03-17T04:34:22.236Z,0.00
2023-03-17T04:35:22.242Z,0.00
2023-03-17T04:36:22.223Z,0.00
2023-03-17T04:37:22.203Z,0.00
2023-03-17T04:38:22.207Z,0.00
2023-03-17T04:39:22.186Z,0.00
2023-03-17T04:40:22.195Z,0.00
2023-03-17T04:41:22.177Z,0.00
2023-03-17T04:42:22.152Z,0.00
2023-03-17T04:43:22.170Z,0.00
2023-03-17T04:44:22.127Z,0.00
2023-03-17T04:45:22.136Z,0.00
2023-03-17T04:46:22.103Z,0.00
2023-03-17T04:47:22.098Z,0.00
2023-03-17T04:48:22.123Z,0.00
2023-03-17T04:49:22.083Z,0.00
2023-03-17T04:50:22.081Z,0.00
2023-03-17T04:51:22.048Z,0.00
2023-03-17T04:52:22.043Z,0.00
2023-03-17T04:53:22.045Z,0.00
2023-03-17T04:54:22.019Z,0.00
2023-03-17T04:55:22.022Z,0.00
2023-03-17T04:56:21.999Z,0.00
2023-03-17T04:57:21.994Z,0.00
2023-03-17T04:58:30.520Z,0.00
2023-03-17T04:59:21.984Z,0.00
2023-03-17T05:00:21.963Z,0.00
2023-03-17T05:01:21.994Z,0.00
2023-03-17T05:02:21.954Z,0.00
2023-03-17T05:03:27.211Z,0.00
2023-03-17T05:04:31.213Z,0.00
2023-03-17T05:05:21.853Z,0.00
2023-03-17T05:06:21.895Z,0.00
2023-03-17T05:07:21.853Z,0.00
2023-03-17T05:08:21.851Z,0.00
2023-03-17T05:09:21.801Z,0.00
2023-03-17T05:10:21.869Z,0.00
2023-03-17T05:11:21.859Z,0.00
2023-03-17T05:12:21.833Z,0.00
2023-03-17T05:13:21.781Z,0.00
2023-03-17T05:14:21.756Z,0.00
2023-03-17T05:15:21.802Z,0.00
2023-03-17T05:16:21.801Z,0.00
2023-03-17T05:17:21.719Z,0.00
2023-03-17T05:18:21.725Z,0.00
2023-03-17T05:19:21.860Z,0.00
2023-03-17T05:20:21.700Z,0.00
2023-03-17T05:21:21.684Z,0.00
2023-03-17T05:22:21.680Z,0.00
2023-03-17T05:23:21.668Z,0.00
2023-03-17T05:24:21.642Z,0.00
2023-03-17T05:25:21.639Z,0.00
2023-03-17T05:26:21.629Z,0.00
2023-03-17T05:27:21.621Z,0.00
2023-03-17T05:28:21.611Z,0.00
2023-03-17T05:29:21.588Z,0.00
2023-03-17T05:30:21.596Z,0.00
2023-03-17T05:31:21.582Z,0.00
2023-03-17T05:32:21.571Z,0.00
2023-03-17T05:33:21.581Z,0.00
2023-03-17T05:34:21.560Z,0.00
2023-03-17T05:35:21.546Z,0.00
2023-03-17T05:36:21.527Z,0.00
2023-03-17T05:37:21.525Z,0.00
2023-03-17T05:38:21.512Z,0.00
2023-03-17T05:39:21.488Z,0.00
2023-03-17T05:40:23.427Z,0.00
2023-03-17T05:41:21.464Z,0.00
2023-03-17T05:42:21.464Z,0.00
2023-03-17T05:43:21.466Z,0.00
2023-03-17T05:44:21.431Z,0.00
2023-03-17T05:45:21.431Z,0.00
2023-03-17T05:46:21.486Z,5.62
2023-03-17T05:47:21.404Z,5.62
2023-03-17T05:48:21.419Z,5.62
2023-03-17T05:49:21.398Z,5.62
2023-03-17T05:50:21.393Z,5.62
2023-03-17T05:51:21.356Z,5.62
2023-03-17T05:52:21.343Z,5.62
2023-03-17T05:53:21.358Z,5.62
2023-03-17T05:54:21.325Z,11.25
2023-03-17T05:55:21.316Z,11.25
2023-03-17T05:56:21.315Z,11.25
2023-03-17T05:57:21.292Z,11.25
2023-03-17T05:58:21.300Z,11.25
2023-03-17T05:59:21.267Z,16.88
2023-03-17T06:00:21.268Z,16.88
2023-03-17T06:01:21.274Z,16.88
2023-03-17T06:02:21.311Z,16.88
2023-03-17T06:03:21.265Z,22.50
2023-03-17T06:04:21.231Z,22.50
2023-03-17T06:05:21.222Z,22.50
2023-03-17T06:06:21.212Z,22.50
2023-03-17T06:07:21.204Z,28.12
2023-03-17T06:08:21.203Z,28.12
2023-03-17T06:09:21.180Z,28.12
2023-03-17T06:10:21.182Z,33.75
2023-03-17T06:11:21.141Z,33.75
2023-03-17T06:12:21.166Z,33.75
2023-03-17T06:13:21.152Z,33.75
2023-03-17T06:14:21.126Z,39.38
2023-03-17T06:15:21.104Z,39.38
2023-03-17T06:16:21.262Z,45.00
2023-03-17T06:17:21.102Z,45.00
2023-03-17T06:18:21.156Z,45.00
2023-03-17T06:19:21.055Z,50.62
2023-03-17T06:20:21.070Z,56.25
2023-03-17T06:21:21.035Z,61.88
2023-03-17T06:22:21.039Z,67.50
2023-03-17T06:23:21.027Z,67.50
2023-03-17T06:24:21.016Z,61.88
2023-03-17T06:25:20.993Z,61.88
2023-03-17T06:26:20.982Z,67.50
2023-03-17T06:27:20.979Z,67.50
2023-03-17T06:28:20.972Z,73.12
2023-03-17T06:29:20.958Z,78.75
2023-03-17T06:30:20.965Z,78.75
2023-03-17T06:31:21.033Z,78.75
2023-03-17T06:32:21.315Z,84.38
2023-03-17T06:33:20.941Z,90.00
2023-03-17T06:34:20.892Z,90.00
2023-03-17T06:35:20.918Z,101.25
2023-03-17T06:36:20.871Z,112.50
2023-03-17T06:37:20.856Z,129.38
2023-03-17T06:38:20.875Z,129.38
2023-03-17T06:39:20.833Z,140.62
2023-03-17T06:40:20.846Z,157.50
2023-03-17T06:41:20.806Z,168.75
2023-03-17T06:42:20.809Z,168.75
2023-03-17T06:43:20.803Z,180.00
2023-03-17T06:44:20.778Z,191.25
2023-03-17T06:45:20.772Z,202.50
2023-03-17T06:46:20.799Z,213.75
2023-03-17T06:47:20.739Z,213.75
2023-03-17T06:48:20.756Z,208.12
2023-03-17T06:49:20.716Z,213.75
2023-03-17T06:50:20.733Z,219.38
2023-03-17T06:51:20.703Z,225.00
2023-03-17T06:52:20.697Z,230.62
2023-03-17T06:53:20.697Z,230.62
2023-03-17T06:54:20.682Z,230.62
2023-03-17T06:55:20.661Z,247.50
2023-03-17T06:56:29.804Z,258.75
2023-03-17T06:57:20.659Z,275.62
2023-03-17T06:58:20.644Z,298.12
2023-03-17T06:59:20.619Z,303.75
2023-03-17T07:00:20.599Z,320.62
2023-03-17T07:01:20.613Z,348.75
2023-03-17T07:02:20.574Z,371.25
2023-03-17T07:03:20.598Z,382.50
2023-03-17T07:04:20.599Z,371.25
2023-03-17T07:05:20.554Z,433.12
2023-03-17T07:06:20.561Z,495.00
2023-03-17T07:07:20.536Z,540.00
2023-03-17T07:08:20.536Z,579.38
2023-03-17T07:09:20.504Z,506.25
2023-03-17T07:10:20.494Z,376.88
2023-03-17T07:11:20.486Z,298.12
2023-03-17T07:12:20.508Z,258.75
2023-03-17T07:13:20.471Z,258.75
2023-03-17T07:14:20.453Z,230.62
2023-03-17T07:15:20.446Z,236.25
2023-03-17T07:16:20.480Z,236.25
2023-03-17T07:17:20.429Z,219.38
2023-03-17T07:18:20.434Z,213.75
2023-03-17T07:19:20.398Z,219.38
2023-03-17T07:20:20.398Z,225.00
2023-03-17T07:21:20.427Z,230.62
2023-03-17T07:22:20.391Z,236.25
2023-03-17T07:23:20.403Z,230.62
2023-03-17T07:24:20.354Z,225.00
2023-03-17T07:25:20.345Z,213.75
2023-03-17T07:26:20.342Z,213.75
2023-03-17T07:27:22.879Z,219.38
2023-03-17T07:28:20.344Z,236.25
2023-03-17T07:29:20.291Z,230.62
2023-03-17T07:30:20.273Z,230.62
2023-03-17T07:31:20.311Z,236.25
2023-03-17T07:32:20.274Z,236.25
2023-03-17T07:33:20.269Z,236.25
2023-03-17T07:34:20.233Z,236.25
2023-03-17T07:35:20.282Z,241.88
2023-03-17T07:36:20.217Z,247.50
2023-03-17T07:37:20.231Z,241.88
2023-03-17T07:38:20.210Z,247.50
2023-03-17T07:39:20.181Z,247.50
2023-03-17T07:40:20.186Z,258.75
2023-03-17T07:47:14.090Z,410.62
2023-03-17T07:48:15.060Z,421.88
2023-03-17T07:49:15.027Z,433.12
2023-03-17T07:50:15.022Z,382.50
2023-03-17T07:51:15.021Z,365.62
2023-03-17T07:52:15.010Z,343.12
2023-03-17T07:53:15.137Z,382.50
2023-03-17T07:54:15.216Z,365.62
2023-03-17T07:55:14.985Z,399.38
2023-03-17T07:56:14.977Z,360.00
2023-03-17T07:57:14.957Z,354.38
2023-03-17T07:58:15.924Z,393.75
2023-03-17T07:59:14.929Z,416.25
2023-03-17T08:00:14.948Z,444.38
2023-03-17T08:01:14.900Z,438.75
2023-03-17T08:02:14.993Z,450.00
2023-03-17T08:03:14.949Z,478.12
2023-03-17T08:04:14.873Z,455.62
2023-03-17T08:05:14.856Z,416.25
2023-03-17T08:06:14.849Z,393.75
2023-03-17T08:07:14.838Z,393.75
2023-03-17T08:08:14.870Z,393.75
2023-03-17T08:09:14.838Z,399.38
2023-03-17T08:10:14.831Z,405.00
2023-03-17T08:11:15.609Z,427.50
2023-03-17T08:12:14.797Z,483.75
2023-03-17T08:13:14.780Z,495.00
2023-03-17T08:14:14.762Z,489.38
2023-03-17T08:15:14.745Z,551.25
2023-03-17T08:16:14.836Z,528.75
2023-03-17T08:17:14.731Z,534.38
2023-03-17T08:18:14.735Z,528.75
2023-03-17T08:19:14.705Z,540.00
2023-03-17T08:20:14.712Z,551.25
2023-03-17T08:21:15.870Z,545.62
2023-03-17T08:22:14.692Z,523.12
2023-03-17T08:23:14.699Z,483.75
2023-03-17T08:24:14.684Z,427.50
2023-03-17T08:25:14.658Z,433.12
2023-03-17T08:26:14.644Z,421.88
2023-03-17T08:27:14.638Z,421.88
2023-03-17T08:28:14.636Z,410.62
2023-03-17T08:29:14.659Z,416.25
2023-03-17T08:30:14.643Z,444.38
2023-03-17T08:31:14.626Z,483.75
2023-03-17T08:32:14.580Z,534.38
2023-03-17T08:33:14.668Z,568.12
2023-03-17T08:34:14.568Z,624.38
2023-03-17T08:35:14.538Z,573.75
2023-03-17T08:36:14.543Z,596.25
2023-03-17T08:37:14.512Z,618.75
2023-03-17T08:38:14.522Z,562.50
2023-03-17T08:39:14.533Z,573.75
2023-03-17T08:40:14.484Z,590.62
2023-03-17T08:41:14.474Z,624.38
2023-03-17T08:42:14.465Z,652.50
2023-03-17T08:43:14.456Z,686.25
2023-03-17T08:44:14.447Z,725.62
2023-03-17T08:45:14.421Z,793.12
2023-03-17T08:46:14.458Z,815.62
2023-03-17T08:47:14.420Z,826.88
2023-03-17T08:48:14.421Z,838.12
2023-03-17T08:49:14.385Z,871.88
2023-03-17T08:50:14.373Z,950.62
2023-03-17T08:51:16.423Z,1012.50
2023-03-17T08:52:14.352Z,1029.38
2023-03-17T08:53:14.354Z,1029.38
2023-03-17T08:54:14.337Z,1063.12
2023-03-17T08:55:14.384Z,1057.50
2023-03-17T08:56:14.373Z,1035.00
2023-03-17T08:57:15.737Z,1018.12
2023-03-17T08:58:14.308Z,1074.38
2023-03-17T08:59:16.813Z,1074.38
2023-03-17T09:00:14.303Z,1125.00
2023-03-17T09:01:14.389Z,1186.88
2023-03-17T09:02:14.311Z,961.88
2023-03-17T09:03:14.285Z,725.62
2023-03-17T09:04:14.243Z,669.38
2023-03-17T09:05:14.247Z,1035.00
2023-03-17T09:06:14.256Z,1080.00
2023-03-17T09:07:14.200Z,1029.38
2023-03-17T09:08:14.270Z,1029.38
2023-03-17T09:09:14.204Z,1051.88
2023-03-17T09:10:14.163Z,1023.75
2023-03-17T09:11:14.147Z,990.00
2023-03-17T09:12:14.161Z,956.25
2023-03-17T09:13:14.135Z,967.50
2023-03-17T09:14:14.131Z,933.75
2023-03-17T09:15:14.099Z,911.25
2023-03-17T09:16:14.137Z,866.25
2023-03-17T09:17:14.099Z,810.00
2023-03-17T09:18:14.103Z,765.00
2023-03-17T09:19:14.065Z,849.38
2023-03-17T09:20:14.058Z,821.25
2023-03-17T09:21:14.078Z,776.25
2023-03-17T09:22:14.039Z,793.12
2023-03-17T09:23:14.043Z,781.88
2023-03-17T09:24:14.035Z,765.00
2023-03-17T09:25:14.008Z,821.25
2023-03-17T09:26:13.985Z,821.25
2023-03-17T09:27:13.974Z,793.12
2023-03-17T09:28:13.985Z,759.38
2023-03-17T09:29:13.948Z,793.12
2023-03-17T09:30:13.942Z,736.88
2023-03-17T09:31:13.932Z,714.38
2023-03-17T09:32:13.921Z,703.12
2023-03-17T09:33:13.947Z,725.62
2023-03-17T09:34:13.903Z,720.00
2023-03-17T09:35:13.884Z,736.88
2023-03-17T09:36:13.891Z,798.75
2023-03-17T09:37:13.872Z,691.88
2023-03-17T09:38:13.871Z,838.12
2023-03-17T09:39:13.856Z,765.00
2023-03-17T09:40:13.848Z,781.88
2023-03-17T09:41:13.822Z,691.88
2023-03-17T09:42:13.814Z,646.88
2023-03-17T09:43:13.813Z,826.88
2023-03-17T09:44:13.824Z,888.75
2023-03-17T09:45:13.784Z,894.38
2023-03-17T09:46:13.820Z,832.50
2023-03-17T09:47:13.794Z,793.12
2023-03-17T09:48:13.765Z,810.00
2023-03-17T09:49:13.880Z,781.88
2023-03-17T09:50:13.730Z,765.00
2023-03-17T09:51:13.746Z,680.62
2023-03-17T09:52:13.722Z,652.50
2023-03-17T09:53:13.712Z,624.38
2023-03-17T09:54:13.687Z,590.62
2023-03-17T09:55:13.669Z,579.38
2023-03-17T09:56:13.660Z,556.88
2023-03-17T09:57:13.647Z,551.25
2023-03-17T09:58:13.656Z,585.00
2023-03-17T09:59:13.624Z,579.38
2023-03-17T10:00:13.624Z,573.75
2023-03-17T10:01:13.618Z,596.25
2023-03-17T10:02:13.679Z,618.75
2023-03-17T10:03:13.691Z,635.62
2023-03-17T10:04:13.635Z,669.38
2023-03-17T10:05:13.606Z,720.00
2023-03-17T10:06:13.555Z,736.88
2023-03-17T10:07:13.540Z,765.00
2023-03-17T10:08:29.460Z,770.62
2023-03-17T10:09:13.526Z,781.88
2023-03-17T10:10:13.514Z,787.50
2023-03-17T10:11:13.517Z,765.00
2023-03-17T10:12:13.533Z,826.88
2023-03-17T10:13:13.538Z,753.75
2023-03-17T10:14:14.497Z,776.25
2023-03-17T10:15:13.473Z,742.50
2023-03-17T10:16:13.558Z,821.25
2023-03-17T10:17:13.439Z,821.25
2023-03-17T10:18:13.434Z,832.50
2023-03-17T10:19:13.409Z,860.62
2023-03-17T10:20:13.398Z,894.38
2023-03-17T10:21:13.424Z,838.12
2023-03-17T10:22:13.371Z,961.88
2023-03-17T10:23:13.395Z,973.12
2023-03-17T10:24:13.358Z,990.00
2023-03-17T10:25:13.370Z,798.75
2023-03-17T10:26:13.343Z,855.00
2023-03-17T10:27:13.338Z,1102.50
2023-03-17T10:28:13.341Z,950.62
2023-03-17T10:29:13.325Z,956.25
2023-03-17T10:30:13.314Z,1035.00
2023-03-17T10:31:13.346Z,1063.12
2023-03-17T10:32:13.370Z,855.00
2023-03-17T10:33:13.412Z,1063.12
2023-03-17T10:34:13.269Z,1018.12
2023-03-17T10:35:13.283Z,1096.88
2023-03-17T10:36:13.325Z,1153.12
2023-03-17T10:37:13.228Z,1012.50
2023-03-17T10:38:14.606Z,871.88
2023-03-17T10:39:13.204Z,916.88
2023-03-17T10:40:13.190Z,1040.62
2023-03-17T10:41:13.178Z,1063.12
2023-03-17T10:42:13.209Z,1057.50
2023-03-17T10:43:13.177Z,1170.00
2023-03-17T10:44:13.152Z,1023.75
2023-03-17T10:45:13.179Z,1265.62
2023-03-17T10:46:13.141Z,1136.25
2023-03-17T10:47:13.193Z,1012.50
2023-03-17T10:48:13.128Z,928.12
2023-03-17T10:49:13.097Z,776.25
2023-03-17T10:50:13.082Z,838.12
2023-03-17T10:51:13.085Z,703.12
2023-03-17T10:52:13.067Z,652.50
2023-03-17T10:53:13.076Z,585.00
2023-03-17T10:54:13.270Z,540.00
2023-03-17T10:55:13.041Z,455.62
2023-03-17T10:56:13.040Z,461.25
2023-03-17T10:57:13.025Z,472.50
2023-03-17T10:58:13.015Z,421.88
2023-03-17T10:59:13.052Z,450.00
2023-03-17T11:00:12.983Z,433.12
2023-03-17T11:01:13.091Z,450.00
2023-03-17T11:02:12.964Z,416.25
2023-03-17T11:03:12.999Z,360.00
2023-03-17T11:04:13.007Z,320.62
2023-03-17T11:05:13.117Z,337.50
2023-03-17T11:06:12.961Z,382.50
2023-03-17T11:07:12.980Z,393.75
2023-03-17T11:08:12.928Z,444.38
2023-03-17T11:09:12.923Z,461.25
2023-03-17T11:10:13.059Z,579.38
2023-03-17T11:11:13.593Z,635.62
2023-03-17T11:12:12.873Z,663.75
2023-03-17T11:13:12.991Z,720.00
2023-03-17T11:14:12.841Z,748.12
2023-03-17T11:15:12.850Z,641.25
2023-03-17T11:16:12.834Z,725.62
2023-03-17T11:17:12.807Z,686.25
2023-03-17T11:18:12.817Z,669.38
2023-03-17T11:19:12.783Z,691.88
2023-03-17T11:20:12.782Z,624.38
2023-03-17T11:21:12.764Z,540.00
2023-03-17T11:22:12.761Z,551.25
2023-03-17T11:23:12.749Z,601.88
2023-03-17T11:24:12.722Z,545.62
2023-03-17T11:25:12.723Z,528.75
2023-03-17T11:26:12.711Z,545.62
2023-03-17T11:27:12.731Z,500.62
2023-03-17T11:28:12.705Z,551.25
2023-03-17T11:29:12.683Z,489.38
2023-03-17T11:30:14.582Z,517.50
2023-03-17T11:31:12.863Z,472.50
2023-03-17T11:32:12.781Z,450.00
2023-03-17T11:33:12.723Z,410.62
2023-03-17T11:34:12.721Z,416.25
2023-03-17T11:35:12.649Z,433.12
2023-03-17T11:36:12.602Z,399.38
2023-03-17T11:37:12.595Z,388.12
2023-03-17T11:38:16.569Z,410.62
2023-03-17T11:39:12.618Z,371.25
2023-03-17T11:40:12.553Z,354.38
2023-03-17T11:41:12.551Z,365.62
2023-03-17T11:42:13.339Z,371.25
2023-03-17T11:43:12.603Z,399.38
2023-03-17T11:44:12.531Z,382.50
2023-03-17T11:45:13.271Z,399.38
2023-03-17T11:46:12.540Z,343.12
2023-03-17T11:47:12.537Z,354.38
2023-03-17T11:48:12.473Z,416.25
2023-03-17T11:49:13.122Z,472.50
2023-03-17T11:50:12.453Z,427.50
2023-03-17T11:51:12.434Z,388.12
2023-03-17T11:52:12.444Z,371.25
2023-03-17T11:53:12.454Z,371.25
2023-03-17T11:54:12.395Z,376.88
2023-03-17T11:55:12.412Z,343.12
2023-03-17T11:56:12.395Z,399.38
2023-03-17T11:57:12.477Z,393.75
2023-03-17T11:58:12.385Z,416.25
2023-03-17T11:59:12.373Z,405.00
2023-03-17T12:00:13.066Z,416.25
2023-03-17T12:01:12.452Z,534.38
2023-03-17T12:02:12.369Z,590.62
2023-03-17T12:03:12.465Z,551.25
2023-03-17T12:04:12.315Z,663.75
2023-03-17T12:05:12.310Z,624.38
2023-03-17T12:06:12.329Z,630.00
2023-03-17T12:07:12.260Z,669.38
2023-03-17T12:08:12.311Z,635.62
2023-03-17T12:09:12.238Z,590.62
2023-03-17T12:10:12.243Z,703.12
2023-03-17T12:11:12.216Z,680.62
2023-03-17T12:12:13.375Z,556.88
2023-03-17T12:13:12.226Z,596.25
2023-03-17T12:14:12.220Z,500.62
2023-03-17T12:15:12.268Z,506.25
2023-03-17T12:16:12.218Z,489.38
2023-03-17T12:17:12.189Z,528.75
2023-03-17T12:18:13.611Z,483.75
2023-03-17T12:19:12.484Z,461.25
2023-03-17T12:20:13.074Z,405.00
2023-03-17T12:21:12.168Z,421.88
2023-03-17T12:22:12.102Z,410.62
2023-03-17T12:23:12.101Z,410.62
2023-03-17T12:24:14.168Z,410.62
2023-03-17T12:25:12.077Z,382.50
2023-03-17T12:26:12.046Z,393.75
2023-03-17T12:27:12.034Z,360.00
2023-03-17T12:28:12.046Z,360.00
2023-03-17T12:29:14.305Z,393.75
2023-03-17T12:30:12.970Z,388.12
2023-03-17T12:31:21.248Z,382.50
2023-03-17T12:32:11.992Z,371.25
2023-03-17T12:33:12.574Z,371.25
2023-03-17T12:34:13.630Z,365.62
2023-03-17T12:35:19.061Z,343.12
2023-03-17T12:36:33.962Z,326.25
2023-03-17T12:37:12.216Z,365.62
2023-03-17T12:38:19.146Z,331.88
2023-03-17T12:39:14.370Z,320.62
2023-03-17T12:40:12.054Z,298.12
2023-03-17T12:41:12.514Z,292.50
2023-03-17T12:42:14.158Z,337.50
2023-03-17T12:43:15.092Z,354.38
2023-03-17T12:44:11.855Z,365.62
2023-03-17T12:45:11.837Z,416.25
2023-03-17T12:46:11.878Z,405.00
2023-03-17T12:47:11.864Z,405.00
2023-03-17T12:48:20.357Z,444.38
2023-03-17T12:49:12.874Z,444.38
2023-03-17T12:50:13.212Z,472.50
2023-03-17T12:51:12.105Z,495.00
2023-03-17T12:52:11.765Z,472.50
2023-03-17T12:53:23.581Z,506.25
2023-03-17T12:54:11.771Z,466.88
2023-03-17T12:55:11.738Z,450.00
2023-03-17T12:56:11.738Z,438.75
2023-03-17T12:57:11.708Z,438.75
2023-03-17T12:58:11.968Z,455.62